Time;durP1;ratioP1;P1;durP2;ratioP2;P2;SDS_P1;SDS_P2;PMS_P1;PMS_P2;Temp;Humidity;BMP_temperature;BMP_pressure;BME280_temperature;BME280_humidity;BME280_pressure;Samples;Min_cycle;Max_cycle;Signal;HPM_P1;HPM_P2
2022/10/29 00:01:40;;;;;;;23.35;6.60;;;13.90;99.90;;;;;;7350163;32;20103;-58
2022/10/29 00:05:42;;;;;;;20.60;8.20;;;13.90;99.90;;;;;;7340867;32;20142;-57
2022/10/29 00:09:44;;;;;;;17.37;7.12;;;13.90;99.90;;;;;;7350188;32;20129;-58
2022/10/29 00:13:47;;;;;;;19.12;7.78;;;13.90;99.90;;;;;;7357554;32;20092;-58
2022/10/29 00:17:48;;;;;;;17.62;7.25;;;13.90;99.90;;;;;;7355207;32;20498;-58
2022/10/29 00:21:50;;;;;;;19.62;7.22;;;13.90;99.90;;;;;;7350428;32;20122;-58
2022/10/29 00:25:58;;;;;;;22.42;7.50;;;14.00;99.90;;;;;;7348517;32;20095;-58
2022/10/29 00:30:00;;;;;;;21.45;7.18;;;14.00;99.90;;;;;;7354107;32;20426;-58
2022/10/29 00:34:02;;;;;;;22.85;7.72;;;14.00;99.90;;;;;;7354083;32;20127;-58
2022/10/29 00:38:03;;;;;;;15.82;7.45;;;14.00;99.90;;;;;;7350520;32;20122;-58
2022/10/29 00:42:05;;;;;;;16.48;7.05;;;14.10;99.90;;;;;;7351550;32;20779;-58
2022/10/29 00:46:10;;;;;;;17.75;6.78;;;14.10;99.90;;;;;;7351667;32;20149;-58
2022/10/29 00:50:13;;;;;;;19.00;7.00;;;14.10;99.90;;;;;;7357118;32;20787;-58
2022/10/29 00:54:15;;;;;;;20.98;6.35;;;14.10;99.90;;;;;;7351780;32;20128;-58
2022/10/29 00:58:18;;;;;;;21.73;7.20;;;14.10;99.90;;;;;;7349918;32;20092;-59
2022/10/29 01:02:22;;;;;;;19.95;6.78;;;14.00;99.90;;;;;;7351939;32;20224;-58
2022/10/29 01:06:25;;;;;;;15.02;7.15;;;14.00;99.90;;;;;;7354098;32;20196;-59
2022/10/29 01:10:44;;;;;;;15.98;6.70;;;14.00;99.90;;;;;;7352267;32;20507;-58
2022/10/29 01:14:49;;;;;;;22.17;6.95;;;14.00;99.90;;;;;;7352890;32;20141;-58
2022/10/29 01:19:19;;;;;;;21.35;7.22;;;13.90;99.90;;;;;;7354853;32;20103;-58
2022/10/29 01:23:33;;;;;;;24.83;6.47;;;13.90;99.90;;;;;;7354151;32;20103;-58
2022/10/29 01:27:52;;;;;;;22.42;7.25;;;13.80;99.90;;;;;;7351151;32;20139;-58
2022/10/29 01:32:13;;;;;;;17.92;6.00;;;13.70;99.90;;;;;;7350580;32;20104;-59
2022/10/29 01:36:18;;;;;;;20.42;6.97;;;13.70;99.90;;;;;;7347635;32;20138;-58
2022/10/29 01:40:38;;;;;;;17.65;6.07;;;13.70;99.90;;;;;;7353293;32;20099;-58
2022/10/29 01:44:47;;;;;;;17.20;6.80;;;13.60;99.90;;;;;;7350818;32;20100;-58
2022/10/29 01:48:53;;;;;;;20.65;7.32;;;13.50;99.90;;;;;;7347536;32;20198;-58
2022/10/29 01:52:56;;;;;;;27.70;6.20;;;13.50;99.90;;;;;;7354644;32;20099;-58
2022/10/29 01:56:59;;;;;;;19.70;6.95;;;13.50;99.90;;;;;;7347400;32;20214;-58
2022/10/29 02:01:20;;;;;;;26.00;7.20;;;13.40;99.90;;;;;;7352091;32;20118;-62
2022/10/29 02:05:41;;;;;;;19.33;7.10;;;13.30;99.90;;;;;;7349161;32;20107;-58
2022/10/29 02:09:53;;;;;;;14.63;6.68;;;13.30;99.90;;;;;;7356997;32;20108;-58
2022/10/29 02:14:10;;;;;;;21.27;6.32;;;13.30;99.90;;;;;;7355799;32;20129;-59
2022/10/29 02:18:12;;;;;;;16.25;6.80;;;13.20;99.90;;;;;;7347908;32;20103;-58
2022/10/29 02:22:14;;;;;;;21.90;7.00;;;13.20;99.90;;;;;;7355478;32;20126;-57
2022/10/29 02:26:16;;;;;;;17.00;7.40;;;13.20;99.90;;;;;;7354470;32;20664;-57
2022/10/29 02:30:18;;;;;;;17.73;6.47;;;13.20;99.90;;;;;;7333913;32;20138;-57
2022/10/29 02:34:19;;;;;;;20.45;6.85;;;13.20;99.90;;;;;;7355040;32;20133;-58
2022/10/29 02:38:21;;;;;;;19.98;6.40;;;13.00;99.90;;;;;;7351813;32;20579;-58
2022/10/29 02:42:23;;;;;;;25.48;6.90;;;13.00;99.90;;;;;;7352395;32;20209;-58
2022/10/29 02:46:25;;;;;;;19.42;7.35;;;12.90;99.90;;;;;;7353161;32;20929;-58
2022/10/29 02:50:26;;;;;;;19.02;7.22;;;12.90;99.90;;;;;;7354343;32;20118;-59
2022/10/29 02:54:28;;;;;;;14.10;7.30;;;12.90;99.90;;;;;;7351696;32;20130;-58
2022/10/29 02:58:30;;;;;;;16.17;7.35;;;12.80;99.90;;;;;;7354352;32;20095;-57
2022/10/29 03:02:32;;;;;;;13.93;6.93;;;12.80;99.90;;;;;;7348996;32;20126;-58
2022/10/29 03:06:33;;;;;;;19.62;6.37;;;12.70;99.90;;;;;;7352076;32;21080;-58
2022/10/29 03:10:35;;;;;;;20.15;7.22;;;12.70;99.90;;;;;;7350459;32;20103;-58
2022/10/29 03:14:37;;;;;;;14.50;6.95;;;12.60;99.90;;;;;;7354153;32;20107;-58
2022/10/29 03:18:38;;;;;;;13.10;6.47;;;12.60;99.90;;;;;;7349477;32;20838;-58
2022/10/29 03:22:40;;;;;;;19.23;7.28;;;12.60;99.90;;;;;;7353534;32;20143;-58
2022/10/29 03:26:41;;;;;;;18.25;7.20;;;12.60;99.90;;;;;;7346729;32;20107;-58
2022/10/29 03:30:43;;;;;;;13.48;6.07;;;12.70;99.90;;;;;;7351400;32;20118;-59
2022/10/29 03:34:45;;;;;;;20.45;6.78;;;12.60;99.90;;;;;;7346325;32;20126;-58
2022/10/29 03:38:46;;;;;;;20.88;7.22;;;12.60;99.90;;;;;;7350471;32;20121;-58
2022/10/29 03:42:48;;;;;;;19.35;7.32;;;12.60;99.90;;;;;;7353232;32;20103;-58
2022/10/29 03:46:50;;;;;;;19.67;7.40;;;12.60;99.90;;;;;;7354742;32;20577;-59
2022/10/29 03:50:56;;;;;;;19.50;6.93;;;12.60;99.90;;;;;;7354276;32;20142;-58
2022/10/29 03:54:57;;;;;;;16.90;7.18;;;12.60;99.90;;;;;;7355570;32;20234;-60
2022/10/29 03:58:59;;;;;;;15.77;7.45;;;12.60;99.90;;;;;;7346740;32;20175;-57
2022/10/29 04:03:01;;;;;;;18.27;6.97;;;12.60;99.90;;;;;;7349841;32;20134;-58
2022/10/29 04:07:03;;;;;;;18.23;9.55;;;12.60;99.90;;;;;;7347881;32;20142;-58
2022/10/29 04:11:06;;;;;;;34.55;18.33;;;12.60;99.90;;;;;;7349033;32;20429;-58
2022/10/29 04:15:09;;;;;;;22.58;10.98;;;12.60;99.90;;;;;;7341772;32;20206;-58
2022/10/29 04:19:10;;;;;;;24.65;9.05;;;12.60;99.90;;;;;;7358000;32;20122;-58
2022/10/29 04:23:12;;;;;;;17.83;8.18;;;12.60;99.90;;;;;;7353306;32;20130;-58
2022/10/29 04:27:34;;;;;;;22.70;9.25;;;12.60;99.90;;;;;;7355221;32;20323;-58
2022/10/29 04:31:55;;;;;;;16.25;7.60;;;12.60;99.90;;;;;;7354736;32;20800;-58
2022/10/29 04:35:57;;;;;;;23.25;7.70;;;12.60;99.90;;;;;;7351612;32;20125;-58
2022/10/29 04:39:59;;;;;;;22.77;8.32;;;12.60;99.90;;;;;;7348216;32;20187;-58
2022/10/29 04:44:01;;;;;;;21.15;7.60;;;12.60;99.90;;;;;;7359936;32;20111;-58
2022/10/29 04:48:04;;;;;;;18.65;7.78;;;12.70;99.90;;;;;;7357347;32;20205;-58
2022/10/29 04:52:06;;;;;;;16.35;7.45;;;12.70;99.90;;;;;;7354913;32;20107;-58
2022/10/29 04:56:07;;;;;;;14.82;7.60;;;12.80;99.90;;;;;;7352079;32;20118;-58
2022/10/29 05:00:10;;;;;;;17.48;7.68;;;12.90;99.90;;;;;;7344613;32;20129;-58
2022/10/29 05:04:19;;;;;;;21.33;7.93;;;12.90;99.90;;;;;;7356054;32;20534;-59
2022/10/29 05:08:20;;;;;;;18.17;7.75;;;13.10;99.90;;;;;;7358291;32;20122;-58
2022/10/29 05:12:22;;;;;;;18.55;7.47;;;13.10;99.90;;;;;;7349753;32;20107;-58
2022/10/29 05:16:24;;;;;;;19.42;7.32;;;13.20;99.90;;;;;;7357918;32;20107;-58
2022/10/29 05:20:26;;;;;;;19.20;8.45;;;13.20;99.90;;;;;;7351560;32;20096;-58
2022/10/29 05:24:28;;;;;;;17.02;6.82;;;13.10;99.90;;;;;;7350233;32;20508;-57
2022/10/29 05:28:29;;;;;;;24.75;8.75;;;13.10;99.90;;;;;;7352516;32;20209;-57
2022/10/29 05:32:31;;;;;;;15.82;6.47;;;13.10;99.90;;;;;;7348472;32;20103;-58
2022/10/29 05:36:33;;;;;;;22.70;7.70;;;13.00;99.90;;;;;;7360636;32;20104;-57
2022/10/29 05:40:34;;;;;;;17.70;6.90;;;13.00;99.90;;;;;;7354321;32;20095;-57
2022/10/29 05:44:36;;;;;;;18.55;6.87;;;13.00;99.90;;;;;;7350894;32;20095;-57
2022/10/29 05:48:38;;;;;;;15.18;7.07;;;13.00;99.90;;;;;;7351677;32;20123;-58
2022/10/29 05:52:39;;;;;;;14.90;6.90;;;13.00;99.90;;;;;;7349831;32;20216;-57
2022/10/29 05:56:41;;;;;;;13.68;6.95;;;13.00;99.90;;;;;;7355872;32;20182;-57
2022/10/29 06:00:44;;;;;;;15.52;6.82;;;13.00;99.90;;;;;;7343888;32;20135;-56
2022/10/29 06:04:45;;;;;;;15.32;6.15;;;13.00;99.90;;;;;;7351532;32;20125;-58
2022/10/29 06:08:47;;;;;;;14.65;6.93;;;13.10;99.90;;;;;;7353058;32;20644;-58
2022/10/29 06:12:49;;;;;;;24.17;8.13;;;13.00;99.90;;;;;;7346815;32;20194;-59
2022/10/29 06:16:50;;;;;;;16.90;7.35;;;13.10;99.90;;;;;;7342446;32;20126;-59
2022/10/29 06:20:53;;;;;;;20.08;7.55;;;13.10;99.90;;;;;;7350357;32;20126;-59
2022/10/29 06:24:55;;;;;;;16.23;7.50;;;13.10;99.90;;;;;;7349160;32;20103;-59
2022/10/29 06:28:57;;;;;;;16.40;7.43;;;13.20;99.90;;;;;;7353174;32;20122;-59
2022/10/29 06:32:59;;;;;;;19.65;7.87;;;13.30;99.90;;;;;;7351378;32;20189;-65
2022/10/29 06:37:00;;;;;;;16.12;7.25;;;13.40;99.90;;;;;;7354062;32;20114;-65
2022/10/29 06:41:02;;;;;;;16.25;7.47;;;13.50;99.90;;;;;;7348307;32;20663;-63
2022/10/29 06:45:04;;;;;;;19.08;8.02;;;13.60;99.90;;;;;;7345819;32;20190;-64
2022/10/29 06:49:06;;;;;;;18.10;7.22;;;13.70;99.90;;;;;;7351337;32;20107;-63
2022/10/29 06:53:12;;;;;;;14.35;7.45;;;13.80;99.90;;;;;;7350554;32;20127;-63
2022/10/29 06:57:13;;;;;;;17.95;6.97;;;13.90;99.90;;;;;;7352357;32;20751;-63
2022/10/29 07:01:15;;;;;;;16.98;7.22;;;14.00;99.90;;;;;;7347296;32;20492;-62
2022/10/29 07:05:17;;;;;;;13.55;7.12;;;14.10;99.90;;;;;;7347701;32;20611;-64
2022/10/29 07:09:18;;;;;;;14.65;6.70;;;14.20;99.90;;;;;;7349633;32;20130;-63
2022/10/29 07:13:20;;;;;;;15.68;6.25;;;14.30;99.90;;;;;;7346732;32;20186;-65
2022/10/29 07:17:22;;;;;;;15.13;6.60;;;14.40;99.90;;;;;;7350156;32;20108;-62
2022/10/29 07:21:23;;;;;;;16.45;6.28;;;14.50;99.90;;;;;;7349573;32;20550;-66
2022/10/29 07:25:25;;;;;;;13.00;6.25;;;14.60;99.90;;;;;;7344879;32;20163;-63
2022/10/29 07:29:27;;;;;;;13.73;5.85;;;14.70;99.90;;;;;;7350320;32;20100;-63
2022/10/29 07:33:29;;;;;;;14.45;5.70;;;14.80;99.90;;;;;;7347257;32;20180;-62
2022/10/29 07:37:31;;;;;;;12.90;5.93;;;14.90;99.90;;;;;;7347988;32;20488;-63
2022/10/29 07:41:33;;;;;;;14.63;4.90;;;15.00;99.90;;;;;;7349098;32;20100;-64
2022/10/29 07:45:34;;;;;;;15.13;4.62;;;15.30;99.90;;;;;;7347877;32;20505;-63
2022/10/29 07:49:36;;;;;;;10.63;4.50;;;15.70;99.90;;;;;;7351238;32;20095;-64
2022/10/29 07:53:38;;;;;;;14.05;5.12;;;15.90;99.90;;;;;;7349184;32;22277;-63
2022/10/29 07:57:39;;;;;;;14.38;4.85;;;16.00;99.90;;;;;;7351655;32;20220;-63
2022/10/29 08:01:41;;;;;;;15.52;5.05;;;16.10;99.90;;;;;;7351073;32;20329;-63
2022/10/29 08:05:46;;;;;;;14.50;4.80;;;16.30;99.90;;;;;;7350166;32;20171;-58
2022/10/29 08:09:52;;;;;;;14.70;4.87;;;16.50;99.90;;;;;;7355398;32;20134;-57
2022/10/29 08:13:54;;;;;;;13.13;4.75;;;16.60;99.90;;;;;;7349603;32;20240;-57
2022/10/29 08:17:56;;;;;;;15.80;4.80;;;16.70;99.90;;;;;;7353113;32;20107;-62
2022/10/29 08:21:58;;;;;;;12.37;4.72;;;16.70;99.90;;;;;;7354406;32;20158;-65
2022/10/29 08:25:59;;;;;;;11.12;4.18;;;16.80;99.90;;;;;;7352379;32;20199;-62
2022/10/29 08:30:02;;;;;;;13.00;4.10;;;16.90;99.90;;;;;;7350897;32;20107;-64
2022/10/29 08:34:03;;;;;;;11.12;5.00;;;17.10;99.90;;;;;;7352434;32;20100;-62
2022/10/29 08:38:11;;;;;;;11.35;4.45;;;17.20;99.90;;;;;;7343179;32;20183;-62
2022/10/29 08:42:18;;;;;;;16.92;5.18;;;17.30;99.90;;;;;;7351702;32;20099;-64
2022/10/29 08:46:40;;;;;;;14.40;4.45;;;17.30;99.90;;;;;;7356969;32;20206;-63
2022/10/29 08:50:46;;;;;;;12.57;4.65;;;17.40;99.90;;;;;;7352294;32;20136;-63
2022/10/29 08:54:57;;;;;;;15.48;4.50;;;17.50;99.90;;;;;;7356642;32;20099;-63
2022/10/29 08:59:05;;;;;;;14.70;4.57;;;17.50;99.90;;;;;;7348819;32;20619;-63
2022/10/29 09:03:10;;;;;;;9.63;3.90;;;17.60;99.90;;;;;;7349187;32;20130;-66
2022/10/29 09:07:27;;;;;;;13.75;4.18;;;17.60;99.90;;;;;;7353523;32;20120;-65
2022/10/29 09:11:50;;;;;;;16.77;5.05;;;17.90;99.90;;;;;;7351392;32;20122;-66
2022/10/29 09:15:56;;;;;;;14.85;4.47;;;18.10;99.90;;;;;;7352770;32;20091;-65
2022/10/29 09:20:21;;;;;;;16.60;5.15;;;18.40;99.90;;;;;;7349590;32;20104;-63
2022/10/29 09:24:36;;;;;;;13.80;3.97;;;18.50;99.90;;;;;;7348360;32;20197;-63
2022/10/29 09:28:53;;;;;;;15.73;4.70;;;18.70;99.90;;;;;;7345998;32;20123;-63
2022/10/29 09:33:10;;;;;;;11.57;4.17;;;18.90;99.90;;;;;;7344710;32;20104;-64
2022/10/29 09:37:20;;;;;;;16.73;4.25;;;19.30;99.90;;;;;;7352624;32;20186;-64
2022/10/29 09:41:30;;;;;;;13.57;3.53;;;19.70;99.90;;;;;;7356902;32;20091;-63
2022/10/29 09:45:47;;;;;;;17.48;3.95;;;20.10;99.90;;;;;;7352114;32;20115;-65
2022/10/29 09:50:10;;;;;;;18.08;5.00;;;20.30;99.90;;;;;;7354974;32;20256;-65
2022/10/29 09:54:12;;;;;;;13.62;4.40;;;20.20;99.90;;;;;;7354649;32;20092;-64
2022/10/29 09:58:20;;;;;;;19.30;4.80;;;20.10;99.90;;;;;;7352566;32;20151;-64
2022/10/29 10:02:35;;;;;;;13.43;4.30;;;20.20;99.90;;;;;;7350016;32;20797;-65
2022/10/29 10:07:01;;;;;;;15.80;3.90;;;20.10;99.90;;;;;;7355149;32;20164;-64
2022/10/29 10:11:05;;;;;;;13.88;4.87;;;20.10;99.90;;;;;;7349811;32;20121;-64
2022/10/29 10:15:34;;;;;;;14.48;4.62;;;19.90;99.90;;;;;;7350437;32;20735;-64
2022/10/29 10:19:42;;;;;;;13.15;3.95;;;20.00;99.90;;;;;;7350718;32;20663;-65
2022/10/29 10:23:47;;;;;;;17.42;5.10;;;19.80;99.90;;;;;;7352252;32;20099;-64
2022/10/29 10:27:48;;;;;;;14.77;3.58;;;19.70;99.90;;;;;;7348531;32;20121;-64
2022/10/29 10:31:56;;;;;;;15.00;4.35;;;19.80;99.90;;;;;;7348395;32;20644;-64
2022/10/29 10:36:04;;;;;;;16.67;4.32;;;19.90;99.90;;;;;;7355071;32;20126;-64
2022/10/29 10:40:18;;;;;;;13.65;4.15;;;20.00;99.90;;;;;;7353573;32;20118;-63
2022/10/29 10:44:21;;;;;;;20.77;4.78;;;20.10;99.90;;;;;;7356362;32;20278;-64
2022/10/29 10:48:26;;;;;;;18.35;3.85;;;20.00;99.90;;;;;;7350798;32;20471;-64
2022/10/29 10:52:34;;;;;;;16.20;4.28;;;20.00;99.90;;;;;;7352179;32;20913;-66
2022/10/29 10:57:01;;;;;;;16.02;4.30;;;20.10;99.90;;;;;;7353708;32;20100;-65
2022/10/29 11:01:12;;;;;;;14.80;3.95;;;20.40;99.90;;;;;;7346562;32;20103;-64
2022/10/29 11:05:24;;;;;;;11.23;3.50;;;20.50;99.90;;;;;;7350518;32;20175;-65
2022/10/29 11:09:31;;;;;;;15.77;4.50;;;20.50;99.90;;;;;;7341874;32;20120;-64
2022/10/29 11:13:33;;;;;;;14.40;4.00;;;20.50;99.90;;;;;;7352550;32;20189;-65
2022/10/29 11:17:45;;;;;;;11.82;3.92;;;20.30;99.90;;;;;;7345372;32;20624;-64
2022/10/29 11:22:04;;;;;;;14.13;4.35;;;20.30;99.90;;;;;;7349875;32;20162;-63
2022/10/29 11:26:14;;;;;;;14.90;4.50;;;20.30;99.90;;;;;;7355510;32;20099;-64
2022/10/29 11:30:18;;;;;;;11.70;3.53;;;20.30;99.90;;;;;;7346566;32;20402;-64
2022/10/29 11:34:27;;;;;;;11.90;3.70;;;20.30;99.90;;;;;;7346890;32;20099;-65
2022/10/29 11:38:45;;;;;;;14.45;4.25;;;20.30;99.90;;;;;;7345295;32;20125;-65
2022/10/29 11:42:47;;;;;;;17.15;4.20;;;20.40;99.90;;;;;;7344526;32;20501;-64
2022/10/29 11:47:15;;;;;;;22.17;4.47;;;20.50;99.90;;;;;;7354526;32;20125;-64
2022/10/29 11:51:25;;;;;;;12.95;4.03;;;20.50;99.90;;;;;;7343682;32;20099;-64
2022/10/29 11:55:58;;;;;;;14.32;4.43;;;20.60;99.90;;;;;;7350402;32;20539;-64
2022/10/29 12:00:18;;;;;;;22.62;5.00;;;20.70;99.90;;;;;;7343641;32;20396;-64
2022/10/29 12:04:26;;;;;;;9.95;3.58;;;20.80;99.90;;;;;;7344954;32;20212;-63
2022/10/29 12:08:50;;;;;;;18.48;4.62;;;20.90;99.90;;;;;;7345513;32;20507;-65
2022/10/29 12:13:50;;;;;;;15.77;3.58;;;21.00;99.90;;;;;;7350209;32;20251;-64
2022/10/29 12:18:17;;;;;;;11.48;3.72;;;21.10;99.90;;;;;;7304098;32;20213;-65
2022/10/29 12:22:36;;;;;;;9.95;3.78;;;21.10;99.90;;;;;;7346015;32;20496;-65
2022/10/29 12:26:48;;;;;;;13.00;3.97;;;21.10;99.90;;;;;;7352031;32;20103;-64
2022/10/29 12:30:56;;;;;;;15.40;3.87;;;21.10;99.90;;;;;;7346312;32;20178;-65
2022/10/29 12:35:05;;;;;;;13.38;4.30;;;21.20;99.90;;;;;;7352152;32;20138;-64
2022/10/29 12:39:17;;;;;;;14.65;3.78;;;21.00;99.90;;;;;;7350291;32;20100;-64
2022/10/29 12:43:25;;;;;;;13.38;4.20;;;20.90;99.90;;;;;;7359389;32;20225;-65
2022/10/29 12:48:02;;;;;;;11.90;3.70;;;20.80;99.90;;;;;;7359591;32;20777;-63
2022/10/29 12:52:19;;;;;;;14.87;3.40;;;21.00;99.90;;;;;;7350599;32;20136;-65
2022/10/29 12:56:21;;;;;;;18.15;4.75;;;20.80;99.90;;;;;;7356067;32;20096;-66
2022/10/29 13:00:23;;;;;;;11.77;3.58;;;20.90;99.90;;;;;;7353846;32;20119;-64
2022/10/29 13:04:26;;;;;;;16.87;3.95;;;20.80;99.90;;;;;;7351614;32;20471;-65
2022/10/29 13:08:33;;;;;;;14.07;3.75;;;21.00;99.90;;;;;;7351705;32;20520;-65
2022/10/29 13:13:04;;;;;;;11.25;4.18;;;21.50;99.90;;;;;;7353398;32;20095;-65
2022/10/29 13:17:27;;;;;;;12.90;3.80;;;21.70;99.90;;;;;;7357860;32;20131;-63
2022/10/29 13:21:56;;;;;;;14.40;3.47;;;21.80;99.90;;;;;;7350344;32;20117;-64
2022/10/29 13:25:58;;;;;;;15.48;3.72;;;21.70;99.90;;;;;;7343254;32;20100;-64
2022/10/29 13:30:25;;;;;;;15.35;4.00;;;21.60;99.90;;;;;;7355678;32;21009;-66
2022/10/29 13:34:52;;;;;;;15.18;3.90;;;21.60;99.90;;;;;;7354348;32;20218;-65
2022/10/29 13:38:54;;;;;;;14.48;3.85;;;21.40;99.90;;;;;;7353810;32;20103;-64
2022/10/29 13:43:15;;;;;;;14.55;3.55;;;21.40;99.90;;;;;;7352429;32;20156;-65
2022/10/29 13:47:21;;;;;;;11.85;4.07;;;21.30;99.90;;;;;;7350237;32;20267;-67
2022/10/29 13:51:30;;;;;;;13.05;3.87;;;21.40;99.90;;;;;;7352533;32;20186;-66
2022/10/29 13:55:32;;;;;;;22.70;3.80;;;21.40;99.90;;;;;;7353302;32;20104;-62
2022/10/29 13:59:37;;;;;;;13.50;3.83;;;21.60;99.90;;;;;;7352288;32;20171;-61
2022/10/29 14:04:02;;;;;;;14.45;3.67;;;21.90;99.90;;;;;;7350787;32;20092;-67
2022/10/29 14:08:27;;;;;;;15.77;3.35;;;22.20;99.90;;;;;;7348611;32;20182;-67
2022/10/29 14:12:31;;;;;;;10.90;3.30;;;22.10;99.90;;;;;;7349636;32;20259;-60
2022/10/29 14:16:32;;;;;;;17.10;3.90;;;22.00;99.90;;;;;;7351104;32;20205;-61
2022/10/29 14:20:34;;;;;;;15.27;3.80;;;21.80;99.90;;;;;;7353753;32;20146;-59
2022/10/29 14:24:37;;;;;;;11.57;3.60;;;21.50;99.90;;;;;;7348648;32;20095;-60
2022/10/29 14:28:39;;;;;;;13.27;3.40;;;21.40;99.90;;;;;;7349407;32;20103;-59
2022/10/29 14:32:40;;;;;;;13.70;3.80;;;21.30;99.90;;;;;;7354903;32;20201;-59
2022/10/29 14:36:49;;;;;;;14.60;3.87;;;21.10;99.90;;;;;;7353859;32;20099;-59
2022/10/29 14:40:50;;;;;;;11.73;4.28;;;20.90;99.90;;;;;;7345030;32;20206;-59
2022/10/29 14:44:55;;;;;;;16.42;4.10;;;20.80;99.90;;;;;;7346456;32;20745;-60
2022/10/29 14:48:59;;;;;;;11.30;4.22;;;20.80;99.90;;;;;;7354065;32;20104;-60
2022/10/29 14:53:05;;;;;;;12.65;3.50;;;20.70;99.90;;;;;;7343877;32;20186;-59
2022/10/29 14:57:13;;;;;;;15.23;3.37;;;20.60;99.90;;;;;;7351022;32;20100;-62
2022/10/29 15:01:19;;;;;;;12.88;3.47;;;20.70;99.90;;;;;;7353392;32;20126;-64
2022/10/29 15:05:24;;;;;;;8.67;3.90;;;20.60;99.90;;;;;;7346043;32;20258;-64
2022/10/29 15:09:26;;;;;;;12.57;3.90;;;20.70;99.90;;;;;;7348836;32;20153;-63
2022/10/29 15:13:28;;;;;;;15.32;3.45;;;20.50;99.90;;;;;;7354075;32;20206;-64
2022/10/29 15:17:31;;;;;;;11.00;3.70;;;20.40;99.90;;;;;;7348242;32;20519;-64
2022/10/29 15:21:33;;;;;;;14.73;3.92;;;20.30;99.90;;;;;;7350365;32;20483;-64
2022/10/29 15:25:38;;;;;;;12.73;4.12;;;20.10;99.90;;;;;;7339583;32;20111;-64
2022/10/29 15:29:44;;;;;;;11.48;3.95;;;19.90;99.90;;;;;;7346627;32;20118;-64
2022/10/29 15:33:48;;;;;;;14.05;3.85;;;19.90;99.90;;;;;;7354278;32;20137;-64
2022/10/29 15:37:50;;;;;;;15.20;4.10;;;19.80;99.90;;;;;;7350692;32;20103;-64
2022/10/29 15:41:55;;;;;;;11.77;3.85;;;19.70;99.90;;;;;;7353674;32;20110;-64
2022/10/29 15:45:57;;;;;;;12.45;3.55;;;19.60;99.90;;;;;;7356737;32;20137;-64
2022/10/29 15:49:59;;;;;;;19.00;3.92;;;19.50;99.90;;;;;;7349563;32;20137;-63
2022/10/29 15:54:01;;;;;;;12.85;4.10;;;19.40;99.90;;;;;;7346845;32;20123;-63
2022/10/29 15:58:18;;;;;;;12.02;4.25;;;19.30;99.90;;;;;;7355950;32;20118;-63
2022/10/29 16:02:20;;;;;;;15.63;3.43;;;19.10;99.90;;;;;;7349593;32;20107;-64
2022/10/29 16:06:22;;;;;;;11.18;3.85;;;19.00;99.90;;;;;;7353049;32;20198;-64
2022/10/29 16:10:23;;;;;;;9.32;3.83;;;18.90;99.90;;;;;;7355210;32;20103;-64
2022/10/29 16:14:25;;;;;;;9.27;3.72;;;18.90;99.90;;;;;;7353205;32;20098;-64
2022/10/29 16:18:27;;;;;;;14.30;3.97;;;18.70;99.90;;;;;;7357092;32;20111;-63
2022/10/29 16:22:29;;;;;;;12.75;3.65;;;18.60;99.90;;;;;;7356948;32;20131;-63
2022/10/29 16:26:30;;;;;;;14.18;4.22;;;18.50;99.90;;;;;;7355242;32;20640;-60
2022/10/29 16:30:33;;;;;;;15.15;4.07;;;18.40;99.90;;;;;;7359402;32;20853;-59
2022/10/29 16:34:34;;;;;;;15.32;4.28;;;18.40;99.90;;;;;;7353916;32;20523;-60
2022/10/29 16:38:36;;;;;;;10.93;3.53;;;18.40;99.90;;;;;;7353170;32;20096;-60
2022/10/29 16:42:38;;;;;;;14.85;3.85;;;18.30;99.90;;;;;;7351760;32;20104;-59
2022/10/29 16:46:40;;;;;;;15.63;4.10;;;18.30;99.90;;;;;;7350347;32;20179;-60
2022/10/29 16:50:42;;;;;;;11.77;3.37;;;18.40;99.90;;;;;;7350067;32;20190;-59
2022/10/29 16:54:43;;;;;;;10.13;3.87;;;18.40;99.90;;;;;;7356654;32;20461;-59
2022/10/29 16:58:45;;;;;;;14.48;4.05;;;18.30;99.90;;;;;;7360154;32;20115;-60
2022/10/29 17:02:47;;;;;;;19.40;3.95;;;18.30;99.90;;;;;;7347876;32;20594;-60
2022/10/29 17:06:49;;;;;;;14.73;4.37;;;18.30;99.90;;;;;;7351780;32;20330;-59
2022/10/29 17:10:57;;;;;;;12.98;4.22;;;18.30;99.90;;;;;;7351432;32;20111;-59
2022/10/29 17:14:58;;;;;;;15.15;3.72;;;18.30;99.90;;;;;;7356854;32;20123;-59
2022/10/29 17:19:00;;;;;;;21.05;4.22;;;18.20;99.90;;;;;;7353427;32;20805;-59
2022/10/29 17:23:02;;;;;;;14.55;3.70;;;18.20;99.90;;;;;;7357538;32;20186;-60
2022/10/29 17:27:03;;;;;;;11.45;4.00;;;18.10;99.90;;;;;;7354976;32;20127;-60
2022/10/29 17:31:06;;;;;;;14.77;4.30;;;18.20;99.90;;;;;;7359741;32;20130;-61
2022/10/29 17:35:08;;;;;;;11.23;3.85;;;18.20;99.90;;;;;;7353096;32;20122;-60
2022/10/29 17:39:10;;;;;;;13.30;3.72;;;18.10;99.90;;;;;;7349645;32;20125;-59
2022/10/29 17:43:12;;;;;;;13.88;3.90;;;18.10;99.90;;;;;;7351580;32;20214;-60
2022/10/29 17:47:14;;;;;;;14.87;3.80;;;18.10;99.90;;;;;;7347043;32;20708;-60
2022/10/29 17:51:16;;;;;;;9.95;3.90;;;18.00;99.90;;;;;;7352682;32;20799;-62
2022/10/29 17:55:18;;;;;;;20.90;4.30;;;17.90;99.90;;;;;;7353057;32;20099;-61
2022/10/29 17:59:20;;;;;;;9.38;4.00;;;17.90;99.90;;;;;;7342770;32;20496;-61
2022/10/29 18:03:25;;;;;;;9.95;4.10;;;17.80;99.90;;;;;;7356487;32;20215;-62
2022/10/29 18:07:27;;;;;;;15.07;3.92;;;17.90;99.90;;;;;;7343641;32;20554;-62
2022/10/29 18:11:29;;;;;;;10.82;4.15;;;17.80;99.90;;;;;;7348563;32;20108;-61
2022/10/29 18:15:31;;;;;;;16.52;4.20;;;17.90;99.90;;;;;;7347901;32;20137;-61
2022/10/29 18:19:32;;;;;;;10.57;4.00;;;17.80;99.90;;;;;;7354831;32;20194;-61
2022/10/29 18:23:34;;;;;;;11.93;3.90;;;17.70;99.90;;;;;;7351454;32;20616;-62
2022/10/29 18:27:36;;;;;;;13.18;4.10;;;17.60;99.90;;;;;;7348924;32;20641;-61
2022/10/29 18:31:41;;;;;;;15.23;4.00;;;17.60;99.90;;;;;;7351259;32;20110;-60
2022/10/29 18:35:42;;;;;;;13.65;3.95;;;17.50;99.90;;;;;;7345644;32;20210;-61
2022/10/29 18:39:44;;;;;;;15.07;4.30;;;17.40;99.90;;;;;;7351684;32;20115;-62
2022/10/29 18:43:46;;;;;;;10.85;4.12;;;17.40;99.90;;;;;;7354190;32;20445;-61
2022/10/29 18:47:47;;;;;;;16.90;4.30;;;17.50;99.90;;;;;;7353698;32;20562;-59
2022/10/29 18:51:49;;;;;;;11.00;4.12;;;17.70;99.90;;;;;;7349356;32;20112;-61
2022/10/29 18:55:52;;;;;;;13.32;4.40;;;17.60;99.90;;;;;;7351213;32;20497;-60
2022/10/29 18:59:53;;;;;;;9.80;4.12;;;17.60;99.90;;;;;;7351479;32;20104;-61
2022/10/29 19:03:57;;;;;;;10.10;3.95;;;17.60;99.90;;;;;;7352020;32;20102;-60
2022/10/29 19:07:59;;;;;;;14.50;4.37;;;17.60;99.90;;;;;;7348330;32;20206;-61
2022/10/29 19:12:01;;;;;;;11.20;4.00;;;17.60;99.90;;;;;;7356171;32;20112;-61
2022/10/29 19:16:05;;;;;;;11.93;3.90;;;17.70;99.90;;;;;;7348434;32;20214;-61
2022/10/29 19:20:07;;;;;;;11.88;4.03;;;17.50;99.90;;;;;;7350181;32;20432;-61
2022/10/29 19:24:13;;;;;;;10.13;3.72;;;17.50;99.90;;;;;;7349147;32;20106;-60
2022/10/29 19:28:15;;;;;;;16.62;4.90;;;17.50;99.90;;;;;;7348275;32;20230;-62
2022/10/29 19:32:16;;;;;;;16.55;4.07;;;17.50;99.90;;;;;;7353434;32;20111;-61
2022/10/29 19:36:19;;;;;;;10.85;4.22;;;17.40;99.90;;;;;;7342175;32;20217;-60
2022/10/29 19:40:21;;;;;;;13.93;3.83;;;17.30;99.90;;;;;;7356250;32;20131;-60
2022/10/29 19:44:22;;;;;;;9.68;3.47;;;17.40;99.90;;;;;;7354201;32;20236;-61
2022/10/29 19:48:24;;;;;;;10.48;4.00;;;17.50;99.90;;;;;;7351337;32;20115;-60
2022/10/29 19:52:26;;;;;;;11.02;4.00;;;17.70;99.90;;;;;;7358815;32;20143;-61
2022/10/29 19:56:27;;;;;;;11.20;3.42;;;18.00;99.90;;;;;;7352702;32;20623;-61
2022/10/29 20:00:29;;;;;;;10.20;3.78;;;18.10;99.90;;;;;;7351814;32;20104;-61
2022/10/29 20:04:31;;;;;;;13.73;3.92;;;18.10;99.90;;;;;;7355604;32;20134;-60
2022/10/29 20:08:32;;;;;;;15.45;3.70;;;18.10;99.90;;;;;;7354380;32;20220;-62
2022/10/29 20:12:34;;;;;;;11.85;4.65;;;18.10;99.90;;;;;;7352080;32;20582;-61
2022/10/29 20:16:35;;;;;;;8.50;3.50;;;18.00;99.90;;;;;;7358013;32;20134;-61
2022/10/29 20:20:37;;;;;;;11.90;3.60;;;18.00;99.90;;;;;;7348422;32;20099;-59
2022/10/29 20:24:39;;;;;;;9.18;3.58;;;17.90;99.90;;;;;;7353791;32;20491;-60
2022/10/29 20:28:41;;;;;;;16.60;4.30;;;18.00;99.90;;;;;;7354964;32;20176;-59
2022/10/29 20:32:42;;;;;;;13.70;3.90;;;17.90;99.90;;;;;;7355861;32;20221;-60
2022/10/29 20:36:45;;;;;;;11.25;3.97;;;17.70;99.90;;;;;;7351860;32;22287;-61
2022/10/29 20:40:49;;;;;;;12.40;3.95;;;17.60;99.90;;;;;;7352146;32;20524;-61
2022/10/29 20:44:51;;;;;;;11.38;3.83;;;17.50;99.90;;;;;;7353863;32;20183;-61
2022/10/29 20:48:53;;;;;;;13.50;4.25;;;17.60;99.90;;;;;;7357721;32;20602;-60
2022/10/29 20:52:54;;;;;;;12.48;3.65;;;17.60;99.90;;;;;;7351931;32;20437;-61
2022/10/29 20:56:56;;;;;;;9.90;3.65;;;17.60;99.90;;;;;;7358938;32;20133;-61
2022/10/29 21:01:09;;;;;;;13.40;3.97;;;17.70;99.90;;;;;;7352746;32;20130;-62
2022/10/29 21:05:11;;;;;;;13.35;4.53;;;17.70;99.90;;;;;;7357538;32;20583;-61